CheckWX is a tool to help pilots better visualize weather data.  It is not intended as a substitute for an official pre-flight weather briefing.

20:12:12 UTC

VVDN TAF
Da Nang International Airport
Da Nang, Vietnam
TAF VVDN 251700Z 2518/2618 23004KT 9999 FEW015 BECMG 2604/2605 12010KT TEMPO 2608/2612 TS FEW015 FEW017CB BKN060 BECMG 2613/2614 22004KT

Jun-25@
18:00 UTC

Jun-25 @ 18:00 UTC

Jun-26@
04:00 UTC

Jun-26 @ 04:00 UTC

TAF VVDN 251700Z 2518/2618 23004KT 9999 FEW015
Wind
  • 230° at 4 KTS
Cloud Levels
  • Few at 1,500' AGL

Jun-26@
04:00 UTC

Jun-26 @ 04:00 UTC

Jun-26@
13:00 UTC

Jun-26 @ 13:00 UTC

BECMG 2604/2605 12010KT

Becoming

Becoming Conditions expected by Wed, Jun 26, 2019 @ 05:00 UTC

Wind
  • 120° at 10 KTS
Cloud Levels
  • Few at 1,500' AGL

Jun-26@
08:00 UTC

Jun-26 @ 08:00 UTC

Jun-26@
12:00 UTC

Jun-26 @ 12:00 UTC

TEMPO 2608/2612 TS FEW015 FEW017CB BKN060

Temporary

Temporary Changes expected for less than half the time period

Conditions
Thunderstorm
Cloud Levels
  • Few at 1,500' AGL
  • Few at 1,700' AGL
  • Broken at 6,000' AGL

Jun-26@
13:00 UTC

Jun-26 @ 13:00 UTC

Jun-26@
18:00 UTC

Jun-26 @ 18:00 UTC

BECMG 2613/2614 22004KT

Becoming

Becoming Conditions expected by Wed, Jun 26, 2019 @ 14:00 UTC

Wind
  • 220° at 4 KTS
Cloud Levels
  • Few at 1,500' AGL